createdAt,value
2018-09-22T00:02:03.554Z,19.52
2018-09-22T00:04:32.948Z,19.64
2018-09-22T00:07:03.606Z,19.69
2018-09-22T00:09:32.514Z,19.59
2018-09-22T00:12:02.407Z,19.51
2018-09-22T00:14:31.435Z,19.39
2018-09-22T00:17:00.441Z,19.40
2018-09-22T00:19:29.626Z,19.34
2018-09-22T00:22:05.177Z,19.46
2018-09-22T00:24:34.460Z,19.46
2018-09-22T00:27:03.432Z,19.40
2018-09-22T00:29:32.541Z,19.39
2018-09-22T00:32:01.545Z,19.38
2018-09-22T00:34:30.544Z,19.26
2018-09-22T00:36:59.664Z,19.39
2018-09-22T00:39:28.958Z,19.46
2018-09-22T00:41:57.904Z,19.29
2018-09-22T00:44:28.401Z,19.18
2018-09-22T00:46:57.750Z,19.21
2018-09-22T00:49:26.762Z,19.26
2018-09-22T00:51:55.683Z,19.31
2018-09-22T00:54:24.990Z,19.28
2018-09-22T00:56:54.041Z,18.98
2018-09-22T00:59:23.368Z,18.97
2018-09-22T01:01:53.161Z,18.96
2018-09-22T01:04:22.239Z,18.97
2018-09-22T01:06:51.413Z,18.85
2018-09-22T01:09:20.846Z,18.93
2018-09-22T01:11:50.139Z,18.89
2018-09-22T01:14:19.414Z,18.95
2018-09-22T01:16:49.102Z,19.00
2018-09-22T01:19:18.138Z,19.08
2018-09-22T01:21:47.101Z,19.22
2018-09-22T01:24:16.433Z,19.37
2018-09-22T01:26:45.447Z,19.38
2018-09-22T01:29:15.532Z,19.38
2018-09-22T01:31:45.473Z,19.44
2018-09-22T01:34:14.844Z,19.59
2018-09-22T01:36:43.844Z,19.46
2018-09-22T01:39:13.629Z,19.52
2018-09-22T01:41:42.799Z,19.53
2018-09-22T01:44:12.559Z,19.66
2018-09-22T01:46:41.681Z,19.47
2018-09-22T01:49:10.884Z,19.50
2018-09-22T01:51:40.424Z,19.45
2018-09-22T01:54:09.492Z,19.43
2018-09-22T01:56:38.672Z,19.27
2018-09-22T01:59:08.623Z,19.16
2018-09-22T02:01:38.594Z,18.74
2018-09-22T02:04:07.746Z,18.70
2018-09-22T02:06:37.425Z,18.65
2018-09-22T02:09:09.063Z,18.50
2018-09-22T02:11:38.113Z,18.44
2018-09-22T02:14:07.126Z,18.50
2018-09-22T02:16:36.562Z,18.44
2018-09-22T02:19:06.024Z,18.55
2018-09-22T02:21:35.121Z,18.66
2018-09-22T02:24:05.159Z,18.40
2018-09-22T02:26:36.067Z,18.59
2018-09-22T02:29:05.170Z,18.30
2018-09-22T02:31:35.080Z,18.50
2018-09-22T02:34:04.605Z,18.75
2018-09-22T02:36:33.614Z,18.80
2018-09-22T02:39:02.862Z,18.96
2018-09-22T02:41:31.862Z,18.81
2018-09-22T02:44:01.327Z,18.51
2018-09-22T02:46:31.207Z,18.64
2018-09-22T02:49:00.153Z,18.65
2018-09-22T02:51:29.073Z,18.65
2018-09-22T02:53:59.420Z,18.71
2018-09-22T02:56:28.969Z,18.43
2018-09-22T02:58:57.957Z,18.50
2018-09-22T03:01:26.981Z,18.65
2018-09-22T03:03:56.124Z,18.59
2018-09-22T03:06:25.686Z,18.41
2018-09-22T03:08:55.093Z,18.50
2018-09-22T03:11:23.978Z,18.39
2018-09-22T03:13:52.971Z,18.33
2018-09-22T03:16:25.505Z,18.44
2018-09-22T03:18:54.583Z,18.40
2018-09-22T03:23:59.196Z,18.59
2018-09-22T03:26:29.849Z,18.49
2018-09-22T03:28:59.786Z,18.39
2018-09-22T03:31:29.126Z,18.51
2018-09-22T03:33:58.336Z,18.30
2018-09-22T03:36:28.379Z,18.11
2018-09-22T03:38:57.707Z,18.09
2018-09-22T03:41:27.456Z,18.20
2018-09-22T03:43:56.405Z,18.23
2018-09-22T03:46:25.942Z,18.18
2018-09-22T03:48:55.750Z,18.06
2018-09-22T03:51:25.952Z,17.93
2018-09-22T03:53:55.982Z,17.77
2018-09-22T03:56:24.936Z,17.58
2018-09-22T03:58:54.430Z,17.52
2018-09-22T04:01:23.522Z,17.39
2018-09-22T04:03:53.232Z,17.49
2018-09-22T04:06:22.208Z,17.61
2018-09-22T04:08:51.529Z,17.72
2018-09-22T04:11:20.910Z,17.61
2018-09-22T04:13:50.465Z,17.50
2018-09-22T04:16:19.511Z,17.45
2018-09-22T04:18:48.436Z,17.86
2018-09-22T04:21:17.407Z,17.66
2018-09-22T04:23:46.716Z,17.54
2018-09-22T04:26:15.655Z,17.63
2018-09-22T04:28:44.577Z,17.39
2018-09-22T04:31:13.564Z,17.27
2018-09-22T04:33:43.137Z,17.51
2018-09-22T04:36:12.102Z,17.51
2018-09-22T04:38:41.094Z,17.73
2018-09-22T04:41:10.102Z,17.55
2018-09-22T04:43:39.196Z,17.36
2018-09-22T04:46:08.145Z,17.36
2018-09-22T04:48:37.109Z,17.45
2018-09-22T04:51:06.209Z,17.64
2018-09-22T04:53:35.126Z,18.05
2018-09-22T04:56:04.144Z,18.43
2018-09-22T04:58:33.106Z,18.53
2018-09-22T05:01:02.058Z,18.30
2018-09-22T05:03:31.597Z,18.48
2018-09-22T05:06:00.601Z,19.01
2018-09-22T05:08:29.569Z,18.92
2018-09-22T05:10:58.553Z,18.84
2018-09-22T05:13:27.581Z,18.76
2018-09-22T05:15:57.381Z,18.68
2018-09-22T05:18:26.726Z,18.57
2018-09-22T05:20:55.774Z,18.40
2018-09-22T05:23:24.868Z,18.26
2018-09-22T05:25:53.897Z,18.24
2018-09-22T05:28:23.004Z,18.23
2018-09-22T05:30:52.068Z,18.41
2018-09-22T05:33:21.091Z,18.21
2018-09-22T05:35:50.662Z,18.41
2018-09-22T05:38:20.146Z,18.58
2018-09-22T05:40:49.265Z,19.09
2018-09-22T05:43:18.706Z,19.26
2018-09-22T05:45:47.827Z,18.64
2018-09-22T05:48:16.803Z,18.89
2018-09-22T05:50:45.794Z,18.86
2018-09-22T05:53:15.156Z,18.54
2018-09-22T05:55:45.174Z,18.39
2018-09-22T05:58:14.213Z,18.42
2018-09-22T06:00:43.277Z,18.44
2018-09-22T06:03:12.279Z,18.58
2018-09-22T06:05:41.320Z,18.51
2018-09-22T06:08:10.267Z,18.68
2018-09-22T06:10:39.342Z,18.87
2018-09-22T06:13:08.718Z,18.92
2018-09-22T06:15:38.041Z,18.83
2018-09-22T06:18:07.023Z,18.90
2018-09-22T06:20:36.008Z,18.90
2018-09-22T06:23:05.385Z,18.95
2018-09-22T06:25:34.282Z,19.04
2018-09-22T06:28:03.431Z,19.09
2018-09-22T06:30:32.749Z,19.11
2018-09-22T06:33:01.731Z,19.24
2018-09-22T06:35:30.850Z,19.44
2018-09-22T06:37:59.910Z,19.36
2018-09-22T06:40:28.967Z,19.88
2018-09-22T06:42:57.928Z,19.57
2018-09-22T06:45:27.221Z,19.63
2018-09-22T06:47:56.169Z,19.41
2018-09-22T06:50:25.113Z,19.53
2018-09-22T06:52:54.434Z,19.56
2018-09-22T06:55:24.496Z,19.59
2018-09-22T06:57:53.476Z,19.65
2018-09-22T07:00:22.493Z,19.55
2018-09-22T07:02:51.470Z,19.69
2018-09-22T07:05:20.530Z,19.72
2018-09-22T07:07:49.569Z,20.31
2018-09-22T07:10:18.546Z,20.49
2018-09-22T07:12:47.478Z,20.31
2018-09-22T07:15:17.331Z,20.49
2018-09-22T07:17:46.357Z,20.47
2018-09-22T07:20:15.761Z,20.69
2018-09-22T07:22:50.302Z,20.43
2018-09-22T07:25:20.227Z,21.40
2018-09-22T07:27:50.425Z,21.27
2018-09-22T07:30:19.935Z,21.37
2018-09-22T07:32:48.916Z,21.72
2018-09-22T07:35:18.088Z,21.40
2018-09-22T07:37:47.050Z,21.93
2018-09-22T07:40:16.034Z,21.83
2018-09-22T07:42:44.954Z,21.68
2018-09-22T07:45:14.684Z,21.77
2018-09-22T07:47:43.756Z,21.80
2018-09-22T07:50:12.764Z,22.16
2018-09-22T07:52:42.079Z,22.35
2018-09-22T07:55:11.068Z,22.13
2018-09-22T07:57:40.070Z,22.69
2018-09-22T08:00:09.242Z,22.74
2018-09-22T08:02:38.193Z,22.36
2018-09-22T08:05:07.689Z,22.45
2018-09-22T08:07:36.937Z,22.61
2018-09-22T08:10:05.937Z,22.87
2018-09-22T08:12:34.890Z,23.25
2018-09-22T08:15:04.045Z,23.42
2018-09-22T08:17:33.098Z,23.52
2018-09-22T08:20:02.365Z,23.28
2018-09-22T08:22:31.758Z,23.86
2018-09-22T08:25:00.828Z,23.88
2018-09-22T08:27:29.892Z,23.88
2018-09-22T08:29:59.024Z,23.86
2018-09-22T08:32:28.055Z,23.73
2018-09-22T08:34:57.125Z,23.85
2018-09-22T08:37:26.636Z,24.32
2018-09-22T08:39:55.647Z,24.38
2018-09-22T08:42:25.381Z,24.73
2018-09-22T08:44:54.838Z,24.87
2018-09-22T08:47:24.799Z,24.70
2018-09-22T08:49:54.583Z,25.13
2018-09-22T08:52:24.966Z,25.11
2018-09-22T08:54:54.653Z,25.10
2018-09-22T08:57:23.719Z,25.15
2018-09-22T08:59:53.139Z,25.07
2018-09-22T09:02:22.267Z,25.04
2018-09-22T09:04:51.444Z,25.63
2018-09-22T09:07:20.553Z,25.72
2018-09-22T09:09:49.652Z,25.95
2018-09-22T09:12:18.737Z,26.10
2018-09-22T09:14:48.141Z,26.49
2018-09-22T09:17:17.249Z,26.68
2018-09-22T09:19:46.576Z,26.74
2018-09-22T09:22:15.721Z,26.88
2018-09-22T09:24:44.857Z,26.64
2018-09-22T09:27:14.008Z,26.85
2018-09-22T09:29:43.165Z,27.01
2018-09-22T09:32:12.353Z,27.40
2018-09-22T09:34:41.481Z,27.56
2018-09-22T09:37:11.022Z,27.63
2018-09-22T09:39:40.143Z,28.00
2018-09-22T09:42:09.285Z,27.96
2018-09-22T09:44:38.441Z,27.94
2018-09-22T09:47:07.668Z,28.12
2018-09-22T09:49:36.785Z,27.69
2018-09-22T09:52:06.002Z,28.10
2018-09-22T09:54:35.210Z,28.64
2018-09-22T09:57:04.351Z,28.59
2018-09-22T09:59:33.782Z,28.82
2018-09-22T10:02:02.992Z,28.51
2018-09-22T10:04:32.344Z,28.31
2018-09-22T10:07:01.532Z,28.28
2018-09-22T10:09:30.712Z,28.76
2018-09-22T10:11:59.842Z,28.53
2018-09-22T10:14:29.965Z,28.67
2018-09-22T10:16:59.078Z,28.75
2018-09-22T10:19:28.200Z,29.13
2018-09-22T10:21:57.645Z,28.83
2018-09-22T10:24:26.804Z,29.29
2018-09-22T10:26:55.994Z,29.19
2018-09-22T10:29:26.178Z,29.30
2018-09-22T10:31:55.377Z,29.56
2018-09-22T10:34:24.544Z,29.85
2018-09-22T10:36:54.237Z,29.56
2018-09-22T10:39:23.338Z,29.71
2018-09-22T10:41:52.531Z,29.68
2018-09-22T10:44:21.691Z,29.74
2018-09-22T10:46:50.832Z,29.96
2018-09-22T10:49:19.942Z,29.70
2018-09-22T10:51:49.419Z,30.11
2018-09-22T10:54:18.498Z,30.43
2018-09-22T10:56:47.661Z,30.11
2018-09-22T10:59:17.166Z,30.66
2018-09-22T11:01:47.351Z,30.38
2018-09-22T11:04:16.473Z,30.29
2018-09-22T11:06:45.641Z,30.29
2018-09-22T11:09:14.811Z,30.78
2018-09-22T11:11:43.968Z,30.87
2018-09-22T11:14:13.474Z,31.35
2018-09-22T11:16:42.627Z,31.01
2018-09-22T11:19:11.747Z,31.25
2018-09-22T11:21:40.923Z,31.21
2018-09-22T11:24:10.056Z,31.70
2018-09-22T11:26:39.202Z,31.30
2018-09-22T11:29:08.696Z,31.27
2018-09-22T11:31:37.854Z,31.86
2018-09-22T11:34:07.134Z,31.33
2018-09-22T11:36:36.707Z,31.57
2018-09-22T11:39:08.357Z,31.80
2018-09-22T11:41:37.926Z,31.60
2018-09-22T11:44:07.300Z,31.54
2018-09-22T11:46:36.992Z,31.84
2018-09-22T11:49:06.808Z,31.62
2018-09-22T11:51:36.038Z,31.72
2018-09-22T11:54:05.212Z,31.80
2018-09-22T11:56:34.476Z,31.76
2018-09-22T11:59:03.707Z,32.08
2018-09-22T12:01:32.893Z,32.18
2018-09-22T12:04:02.426Z,32.76
2018-09-22T12:06:31.669Z,32.31
2018-09-22T12:09:01.116Z,32.67
2018-09-22T12:11:30.651Z,32.56
2018-09-22T12:13:59.812Z,31.70
2018-09-22T12:16:28.976Z,31.20
2018-09-22T12:18:58.271Z,31.99
2018-09-22T12:21:29.149Z,31.87
2018-09-22T12:23:59.539Z,31.66
2018-09-22T12:26:28.716Z,31.38
2018-09-22T12:28:58.326Z,31.74
2018-09-22T12:31:28.226Z,31.60
2018-09-22T12:33:57.375Z,31.86
2018-09-22T12:36:29.214Z,31.23
2018-09-22T12:38:59.340Z,31.88
2018-09-22T12:41:28.518Z,31.39
2018-09-22T12:43:58.183Z,31.65
2018-09-22T12:46:27.428Z,32.14
2018-09-22T12:48:56.556Z,31.95
2018-09-22T12:51:27.619Z,31.69
2018-09-22T12:53:56.718Z,32.22
2018-09-22T12:56:26.003Z,31.70
2018-09-22T12:58:55.206Z,31.63
2018-09-22T13:01:24.316Z,31.29
2018-09-22T13:03:53.797Z,31.22
2018-09-22T13:06:23.372Z,31.42
2018-09-22T13:08:54.138Z,31.69
2018-09-22T13:11:23.347Z,31.27
2018-09-22T13:13:53.278Z,31.62
2018-09-22T13:16:22.415Z,31.54
2018-09-22T13:18:51.558Z,31.69
2018-09-22T13:21:21.006Z,31.53
2018-09-22T13:23:50.142Z,31.61
2018-09-22T13:26:19.341Z,31.90
2018-09-22T13:28:48.538Z,32.03
2018-09-22T13:31:17.745Z,31.99
2018-09-22T13:33:46.863Z,31.71
2018-09-22T13:36:16.321Z,31.29
2018-09-22T13:38:45.523Z,31.58
2018-09-22T13:41:14.631Z,31.80
2018-09-22T13:43:44.082Z,31.61
2018-09-22T13:46:13.336Z,31.82
2018-09-22T13:48:42.488Z,32.17
2018-09-22T13:51:11.956Z,31.59
2018-09-22T13:53:41.392Z,31.54
2018-09-22T13:56:10.548Z,31.88
2018-09-22T13:58:40.413Z,31.64
2018-09-22T14:01:09.536Z,31.32
2018-09-22T14:03:38.939Z,32.02
2018-09-22T14:06:08.577Z,31.80
2018-09-22T14:08:37.702Z,31.83
2018-09-22T14:11:07.047Z,31.96
2018-09-22T14:13:36.603Z,31.74
2018-09-22T14:16:05.769Z,31.86
2018-09-22T14:18:35.155Z,31.29
2018-09-22T14:21:04.723Z,32.09
2018-09-22T14:23:33.920Z,31.55
2018-09-22T14:26:03.241Z,31.42
2018-09-22T14:28:33.194Z,31.86
2018-09-22T14:31:02.597Z,31.74
2018-09-22T14:33:31.734Z,31.60
2018-09-22T14:36:01.239Z,31.32
2018-09-22T14:38:30.697Z,30.94
2018-09-22T14:40:59.819Z,30.99
2018-09-22T14:43:29.288Z,30.93
2018-09-22T14:45:58.495Z,30.55
2018-09-22T14:48:27.629Z,31.03
2018-09-22T14:50:57.049Z,31.23
2018-09-22T14:53:26.267Z,31.40
2018-09-22T14:55:55.408Z,30.85
2018-09-22T14:58:25.017Z,31.62
2018-09-22T15:00:54.138Z,31.64
2018-09-22T15:03:23.271Z,31.63
2018-09-22T15:05:52.809Z,31.56
2018-09-22T15:08:21.878Z,31.52
2018-09-22T15:10:51.335Z,31.49
2018-09-22T15:13:20.712Z,31.38
2018-09-22T15:15:49.782Z,31.38
2018-09-22T15:18:18.856Z,31.40
2018-09-22T15:20:48.316Z,31.35
2018-09-22T15:23:17.418Z,31.36
2018-09-22T15:25:46.524Z,30.95
2018-09-22T15:28:15.930Z,30.93
2018-09-22T15:30:45.056Z,30.45
2018-09-22T15:33:14.151Z,30.31
2018-09-22T15:35:43.272Z,30.29
2018-09-22T15:38:12.376Z,30.09
2018-09-22T15:40:41.921Z,30.13
2018-09-22T15:43:11.343Z,29.93
2018-09-22T15:45:40.632Z,29.75
2018-09-22T15:48:09.720Z,29.76
2018-09-22T15:50:39.251Z,29.47
2018-09-22T15:53:08.353Z,29.25
2018-09-22T15:55:37.450Z,29.25
2018-09-22T15:58:07.995Z,29.20
2018-09-22T16:00:37.160Z,29.12
2018-09-22T16:03:06.289Z,29.21
2018-09-22T16:05:35.683Z,29.19
2018-09-22T16:08:04.938Z,29.14
2018-09-22T16:10:34.050Z,29.09
2018-09-22T16:13:03.518Z,28.98
2018-09-22T16:15:32.618Z,28.70
2018-09-22T16:18:02.298Z,28.61
2018-09-22T16:20:31.754Z,28.41
2018-09-22T16:23:00.886Z,28.52
2018-09-22T16:25:30.058Z,28.44
2018-09-22T16:27:59.270Z,28.33
2018-09-22T16:30:28.398Z,28.21
2018-09-22T16:32:57.557Z,27.98
2018-09-22T16:35:28.075Z,27.80
2018-09-22T16:37:57.208Z,27.87
2018-09-22T16:40:26.340Z,27.93
2018-09-22T16:42:55.877Z,27.68
2018-09-22T16:45:24.992Z,27.36
2018-09-22T16:47:54.080Z,27.95
2018-09-22T16:50:23.593Z,27.81
2018-09-22T16:52:52.707Z,28.39
2018-09-22T16:55:21.845Z,28.14
2018-09-22T16:57:51.056Z,27.68
2018-09-22T17:00:21.781Z,27.64
2018-09-22T17:02:50.881Z,27.33
2018-09-22T17:05:21.349Z,27.13
2018-09-22T17:07:50.492Z,27.20
2018-09-22T17:10:19.558Z,27.18
2018-09-22T17:12:49.083Z,27.28
2018-09-22T17:15:19.095Z,27.20
2018-09-22T17:17:48.836Z,27.10
2018-09-22T17:20:18.319Z,26.97
2018-09-22T17:22:47.503Z,26.97
2018-09-22T17:25:16.596Z,27.00
2018-09-22T17:27:46.126Z,27.04
2018-09-22T17:30:16.265Z,26.92
2018-09-22T17:32:45.334Z,27.00
2018-09-22T17:35:15.468Z,27.13
2018-09-22T17:37:44.617Z,27.18
2018-09-22T17:40:13.733Z,27.13
2018-09-22T17:42:44.176Z,27.12
2018-09-22T17:45:13.438Z,27.23
2018-09-22T17:47:42.574Z,27.07
2018-09-22T17:50:12.562Z,26.87
2018-09-22T17:52:41.764Z,26.72
2018-09-22T17:55:12.194Z,26.80
2018-09-22T17:57:41.424Z,26.80
2018-09-22T18:00:10.853Z,26.76
2018-09-22T18:02:40.024Z,26.72
2018-09-22T18:05:09.552Z,26.77
2018-09-22T18:07:39.167Z,26.62
2018-09-22T18:10:08.292Z,26.79
2018-09-22T18:12:38.926Z,26.71
2018-09-22T18:15:08.168Z,26.62
2018-09-22T18:17:37.330Z,26.59
2018-09-22T18:20:06.666Z,26.53
2018-09-22T18:22:35.861Z,26.41
2018-09-22T18:25:05.205Z,26.32
2018-09-22T18:27:34.761Z,26.06
2018-09-22T18:30:04.020Z,25.93
2018-09-22T18:32:33.140Z,26.03
2018-09-22T18:35:02.479Z,25.93
2018-09-22T18:37:31.620Z,25.83
2018-09-22T18:40:00.794Z,26.01
2018-09-22T18:42:31.042Z,25.92
2018-09-22T18:45:00.791Z,25.85
2018-09-22T18:47:29.961Z,25.77
2018-09-22T18:50:00.086Z,25.81
2018-09-22T18:52:29.231Z,25.86
2018-09-22T18:54:58.378Z,25.81
2018-09-22T18:57:27.581Z,25.69
2018-09-22T18:59:56.776Z,25.69
2018-09-22T19:02:27.460Z,25.79
2018-09-22T19:04:58.305Z,25.64
2018-09-22T19:07:27.752Z,25.76
2018-09-22T19:09:57.712Z,25.78
2018-09-22T19:12:27.707Z,25.65
2018-09-22T19:15:12.935Z,25.42
2018-09-22T19:17:47.628Z,25.44
2018-09-22T19:20:24.814Z,25.47
2018-09-22T19:22:57.874Z,25.48
2018-09-22T19:25:30.587Z,25.29
2018-09-22T19:28:04.066Z,25.29
2018-09-22T19:30:42.403Z,25.15
2018-09-22T19:34:16.953Z,24.91
2018-09-22T19:36:51.819Z,24.84
2018-09-22T19:39:32.948Z,24.97
2018-09-22T19:42:11.913Z,25.16
2018-09-22T19:44:45.456Z,25.13
2018-09-22T19:47:17.915Z,25.22
2018-09-22T19:50:04.833Z,24.84
2018-09-22T19:52:50.537Z,24.76
2018-09-22T19:55:20.713Z,24.35
2018-09-22T19:57:50.868Z,24.18
2018-09-22T20:00:20.318Z,24.02
2018-09-22T20:02:49.549Z,23.91
2018-09-22T20:05:18.742Z,23.80
2018-09-22T20:07:47.909Z,23.77
2018-09-22T20:10:17.354Z,23.93
2018-09-22T20:12:46.549Z,23.93
2018-09-22T20:15:15.677Z,23.89
2018-09-22T20:17:45.180Z,23.79
2018-09-22T20:20:14.280Z,23.55
2018-09-22T20:22:43.460Z,23.49
2018-09-22T20:25:12.892Z,23.56
2018-09-22T20:27:41.998Z,23.50
2018-09-22T20:30:12.771Z,23.40
2018-09-22T20:32:43.137Z,23.39
2018-09-22T20:35:13.838Z,23.37
2018-09-22T20:37:42.940Z,23.37
2018-09-22T20:40:12.441Z,23.13
2018-09-22T20:42:41.579Z,23.02
2018-09-22T20:45:10.694Z,22.91
2018-09-22T20:47:40.140Z,22.66
2018-09-22T20:50:09.351Z,22.38
2018-09-22T20:52:38.445Z,22.73
2018-09-22T20:55:08.118Z,22.38
2018-09-22T20:57:37.356Z,22.33
2018-09-22T21:00:07.641Z,22.21
2018-09-22T21:02:37.154Z,21.96
2018-09-22T21:05:06.360Z,22.01
2018-09-22T21:07:35.834Z,21.97
2018-09-22T21:10:05.369Z,21.99
2018-09-22T21:12:34.497Z,21.88
2018-09-22T21:15:03.585Z,21.83
2018-09-22T21:17:32.966Z,21.84
2018-09-22T21:20:02.039Z,21.81
2018-09-22T21:22:31.121Z,21.88
2018-09-22T21:25:00.578Z,21.99
2018-09-22T21:27:29.671Z,22.24
2018-09-22T21:29:58.720Z,22.15
2018-09-22T21:32:28.195Z,22.09
2018-09-22T21:34:57.281Z,22.13
2018-09-22T21:37:26.377Z,22.25
2018-09-22T21:39:55.784Z,22.43
2018-09-22T21:42:24.859Z,22.56
2018-09-22T21:44:54.019Z,22.60
2018-09-22T21:47:23.237Z,22.66
2018-09-22T21:49:52.223Z,22.77
2018-09-22T21:52:21.270Z,22.89
2018-09-22T21:54:50.732Z,22.71
2018-09-22T21:57:19.716Z,22.78
2018-09-22T21:59:48.782Z,22.57
2018-09-22T22:02:18.292Z,22.82
2018-09-22T22:04:47.382Z,22.50
2018-09-22T22:07:16.419Z,22.33
2018-09-22T22:09:45.510Z,23.03
2018-09-22T22:12:14.579Z,22.45
2018-09-22T22:14:43.671Z,22.52
2018-09-22T22:17:13.062Z,22.39
2018-09-22T22:19:42.913Z,22.41
2018-09-22T22:22:11.979Z,22.64
2018-09-22T22:24:41.813Z,22.74
2018-09-22T22:27:10.930Z,22.68
2018-09-22T22:29:39.995Z,22.86
2018-09-22T22:32:09.430Z,22.81
2018-09-22T22:34:38.466Z,22.40
2018-09-22T22:37:07.545Z,22.42
2018-09-22T22:39:36.889Z,22.56
2018-09-22T22:42:05.964Z,22.48
2018-09-22T22:44:34.999Z,22.19
2018-09-22T22:47:04.442Z,22.20
2018-09-22T22:49:33.511Z,22.13
2018-09-22T22:52:02.605Z,22.29
2018-09-22T22:54:31.730Z,22.52
2018-09-22T22:57:00.791Z,22.68
2018-09-22T22:59:29.897Z,22.90
2018-09-22T23:01:59.345Z,22.98
2018-09-22T23:04:28.414Z,23.08
2018-09-22T23:06:57.455Z,22.98
2018-09-22T23:09:26.606Z,22.64
2018-09-22T23:11:55.695Z,22.38
2018-09-22T23:14:24.736Z,22.01
2018-09-22T23:16:53.834Z,21.72
2018-09-22T23:19:22.889Z,21.40
2018-09-22T23:21:51.899Z,21.49
2018-09-22T23:24:21.209Z,21.39
2018-09-22T23:26:50.281Z,21.39
2018-09-22T23:29:19.401Z,21.58
2018-09-22T23:31:48.787Z,21.60
2018-09-22T23:34:17.827Z,21.73
2018-09-22T23:36:46.861Z,21.87
2018-09-22T23:39:15.945Z,21.82
2018-09-22T23:41:44.990Z,21.89
2018-09-22T23:44:14.012Z,21.85
2018-09-22T23:46:43.367Z,21.78
2018-09-22T23:49:12.443Z,21.91
2018-09-22T23:51:41.478Z,22.06
2018-09-22T23:54:10.556Z,22.11
2018-09-22T23:56:39.575Z,21.82
2018-09-22T23:59:08.606Z,21.97
